createdAt,value
2024-04-19T00:02:22.223Z,2.50
2024-04-19T00:04:49.197Z,2.50
2024-04-19T00:07:17.015Z,2.50
2024-04-19T00:09:44.387Z,2.50
2024-04-19T00:12:11.535Z,2.50
2024-04-19T00:14:38.485Z,2.50
2024-04-19T00:17:06.068Z,2.50
2024-04-19T00:19:33.274Z,2.50
2024-04-19T00:22:00.591Z,2.60
2024-04-19T00:24:27.639Z,2.60
2024-04-19T00:26:54.663Z,2.60
2024-04-19T00:29:23.328Z,2.60
2024-04-19T00:31:50.285Z,2.70
2024-04-19T00:34:18.039Z,2.70
2024-04-19T00:36:45.145Z,2.70
2024-04-19T00:39:12.990Z,2.70
2024-04-19T00:41:40.055Z,2.70
2024-04-19T00:44:07.005Z,2.60
2024-04-19T00:46:34.964Z,2.60
2024-04-19T00:49:01.986Z,2.60
2024-04-19T00:51:30.840Z,2.60
2024-04-19T00:53:57.806Z,2.60
2024-04-19T00:56:25.877Z,2.60
2024-04-19T00:58:54.838Z,2.60
2024-04-19T01:01:24.952Z,2.60
2024-04-19T01:03:53.954Z,2.60
2024-04-19T01:06:21.052Z,2.70
2024-04-19T01:08:48.024Z,2.70
2024-04-19T01:11:15.382Z,2.70
2024-04-19T01:13:45.832Z,2.70
2024-04-19T01:16:13.728Z,2.70
2024-04-19T01:18:40.924Z,3.70
2024-04-19T01:21:10.835Z,2.70
2024-04-19T01:23:37.903Z,2.70
2024-04-19T01:26:08.101Z,2.70
2024-04-19T01:28:35.238Z,2.70
2024-04-19T01:31:02.143Z,2.70
2024-04-19T01:33:29.235Z,2.70
2024-04-19T01:38:51.263Z,2.70
2024-04-19T01:41:19.090Z,2.70
2024-04-19T01:43:46.143Z,2.70
2024-04-19T01:46:13.103Z,2.70
2024-04-19T01:48:40.230Z,2.70
2024-04-19T01:51:07.336Z,2.70
2024-04-19T01:53:34.243Z,2.70
2024-04-19T01:56:01.153Z,2.70
2024-04-19T01:58:28.048Z,2.70
2024-04-19T02:00:55.171Z,2.70
2024-04-19T02:03:22.077Z,2.80
2024-04-19T02:05:50.512Z,2.60
2024-04-19T02:08:17.408Z,2.70
2024-04-19T02:10:45.019Z,2.60
2024-04-19T02:13:13.508Z,2.60
2024-04-19T02:15:40.625Z,2.60
2024-04-19T02:18:07.759Z,2.60
2024-04-19T02:20:34.724Z,2.50
2024-04-19T02:23:01.556Z,2.50
2024-04-19T02:25:29.062Z,2.50
2024-04-19T02:28:14.537Z,2.50
2024-04-19T02:30:55.947Z,2.50
2024-04-19T02:36:17.491Z,2.40
2024-04-19T02:38:45.409Z,2.40
2024-04-19T02:41:12.282Z,2.40
2024-04-19T02:43:39.354Z,2.40
2024-04-19T02:46:07.434Z,2.30
2024-04-19T02:48:34.701Z,2.40
2024-04-19T02:51:03.402Z,2.40
2024-04-19T02:53:33.419Z,2.40
2024-04-19T02:56:03.502Z,2.40
2024-04-19T02:58:30.576Z,2.40
2024-04-19T03:00:57.767Z,2.40
2024-04-19T03:03:25.371Z,2.40
2024-04-19T03:05:55.476Z,2.40
2024-04-19T03:08:25.306Z,2.40
2024-04-19T03:10:52.345Z,2.50
2024-04-19T03:13:19.412Z,2.50
2024-04-19T03:15:46.661Z,2.50
2024-04-19T03:18:13.711Z,2.50
2024-04-19T03:20:40.629Z,2.50
2024-04-19T03:23:08.262Z,2.50
2024-04-19T03:25:37.235Z,2.50
2024-04-19T03:28:04.358Z,2.60
2024-04-19T03:30:35.432Z,2.60
2024-04-19T03:33:02.636Z,2.50
2024-04-19T03:35:29.758Z,2.50
2024-04-19T03:37:58.699Z,2.60
2024-04-19T03:40:25.640Z,3.20
2024-04-19T03:42:56.270Z,2.60
2024-04-19T03:45:41.815Z,2.60
2024-04-19T03:48:12.463Z,2.60
2024-04-19T03:50:40.467Z,2.60
2024-04-19T03:53:09.044Z,2.60
2024-04-19T03:55:35.985Z,2.60
2024-04-19T03:58:03.005Z,2.60
2024-04-19T04:00:30.120Z,2.60
2024-04-19T04:02:57.122Z,2.60
2024-04-19T04:05:24.127Z,2.70
2024-04-19T04:07:51.059Z,3.20
2024-04-19T04:10:20.031Z,2.70
2024-04-19T04:12:47.226Z,2.70
2024-04-19T04:15:15.390Z,2.70
2024-04-19T04:17:44.136Z,2.70
2024-04-19T04:20:11.106Z,2.70
2024-04-19T04:22:38.066Z,2.70
2024-04-19T04:25:05.148Z,2.80
2024-04-19T04:27:34.459Z,2.80
2024-04-19T04:30:01.348Z,2.70
2024-04-19T04:32:30.432Z,2.80
2024-04-19T04:34:57.354Z,2.80
2024-04-19T04:37:24.914Z,2.70
2024-04-19T04:39:52.000Z,2.80
2024-04-19T04:42:19.062Z,2.80
2024-04-19T04:44:46.247Z,2.80
2024-04-19T04:47:13.140Z,2.80
2024-04-19T04:49:40.259Z,2.80
2024-04-19T04:52:08.841Z,2.80
2024-04-19T04:54:35.907Z,2.80
2024-04-19T04:57:04.136Z,2.80
2024-04-19T04:59:31.211Z,2.80
2024-04-19T05:01:59.476Z,2.80
2024-04-19T05:04:28.816Z,2.80
2024-04-19T05:06:55.816Z,2.90
2024-04-19T05:09:22.779Z,2.80
2024-04-19T05:11:51.334Z,2.80
2024-04-19T05:14:18.182Z,2.80
2024-04-19T05:16:46.372Z,2.80
2024-04-19T05:19:13.391Z,2.90
2024-04-19T05:21:40.328Z,2.90
2024-04-19T05:24:07.870Z,2.90
2024-04-19T05:26:34.981Z,2.90
2024-04-19T05:29:01.931Z,2.90
2024-04-19T05:31:28.755Z,2.90
2024-04-19T05:33:55.727Z,3.00
2024-04-19T05:36:22.772Z,3.00
2024-04-19T05:38:49.720Z,3.00
2024-04-19T05:41:16.755Z,2.90
2024-04-19T05:43:48.815Z,3.00
2024-04-19T05:46:15.741Z,3.10
2024-04-19T05:48:42.935Z,3.10
2024-04-19T05:51:09.992Z,3.20
2024-04-19T05:53:37.934Z,3.20
2024-04-19T05:56:05.574Z,3.20
2024-04-19T05:58:33.646Z,3.20
2024-04-19T06:01:04.979Z,3.30
2024-04-19T06:03:32.226Z,4.20
2024-04-19T06:05:59.504Z,3.30
2024-04-19T06:08:26.568Z,3.40
2024-04-19T06:10:53.605Z,3.40
2024-04-19T06:13:21.525Z,3.50
2024-04-19T06:15:48.606Z,3.50
2024-04-19T06:18:15.699Z,3.50
2024-04-19T06:20:43.717Z,3.70
2024-04-19T06:23:11.493Z,3.70
2024-04-19T06:25:38.479Z,3.70
2024-04-19T06:28:06.505Z,3.80
2024-04-19T06:30:34.497Z,3.80
2024-04-19T06:33:01.469Z,3.90
2024-04-19T06:35:28.506Z,3.90
2024-04-19T06:37:55.421Z,4.00
2024-04-19T06:40:23.521Z,4.00
2024-04-19T06:42:52.588Z,4.00
2024-04-19T06:45:19.714Z,4.10
2024-04-19T06:47:47.031Z,4.10
2024-04-19T06:50:14.432Z,4.20
2024-04-19T06:52:41.299Z,4.20
2024-04-19T06:55:08.438Z,4.20
2024-04-19T06:57:35.359Z,4.20
2024-04-19T07:00:14.574Z,4.30
2024-04-19T07:02:52.596Z,4.30
2024-04-19T07:05:19.639Z,4.30
2024-04-19T07:07:51.004Z,4.30
2024-04-19T07:10:18.095Z,4.40
2024-04-19T07:12:45.852Z,4.40
2024-04-19T07:15:12.812Z,4.40
2024-04-19T07:17:41.361Z,4.50
2024-04-19T07:20:10.346Z,4.50
2024-04-19T07:22:37.236Z,4.60
2024-04-19T07:25:04.526Z,4.60
2024-04-19T07:27:39.420Z,4.70
2024-04-19T07:30:14.455Z,4.70
2024-04-19T07:32:41.440Z,4.70
2024-04-19T07:35:10.227Z,4.80
2024-04-19T07:37:37.037Z,4.80
2024-04-19T07:40:05.320Z,4.80
2024-04-19T07:42:34.310Z,4.90
2024-04-19T07:45:01.418Z,4.90
2024-04-19T07:47:29.384Z,4.90
2024-04-19T07:49:56.398Z,4.90
2024-04-19T07:52:25.810Z,5.00
2024-04-19T07:54:53.149Z,5.00
2024-04-19T07:57:20.553Z,5.10
2024-04-19T07:59:47.685Z,5.10
2024-04-19T08:02:15.135Z,5.20
2024-04-19T08:04:42.190Z,5.20
2024-04-19T08:07:12.526Z,5.20
2024-04-19T08:09:43.987Z,5.20
2024-04-19T08:12:10.898Z,5.40
2024-04-19T08:14:37.873Z,5.50
2024-04-19T08:17:06.626Z,5.50
2024-04-19T08:19:33.464Z,5.50
2024-04-19T08:22:00.423Z,5.50
2024-04-19T08:24:28.514Z,5.50
2024-04-19T08:26:57.064Z,5.50
2024-04-19T08:29:30.300Z,5.50
2024-04-19T08:34:57.062Z,5.50
2024-04-19T08:37:26.013Z,5.40
2024-04-19T08:39:53.696Z,5.40
2024-04-19T08:42:22.921Z,5.40
2024-04-19T08:44:51.004Z,5.50
2024-04-19T08:47:19.449Z,5.50
2024-04-19T08:49:49.533Z,5.50
2024-04-19T08:52:39.311Z,5.50
2024-04-19T08:55:09.499Z,5.60
2024-04-19T08:57:37.424Z,5.60
2024-04-19T09:00:12.948Z,5.60
2024-04-19T09:02:43.934Z,5.60
2024-04-19T09:05:11.850Z,5.60
2024-04-19T09:07:41.404Z,5.60
2024-04-19T09:10:10.900Z,5.50
2024-04-19T09:12:37.859Z,5.50
2024-04-19T09:15:05.892Z,5.60
2024-04-19T09:17:34.045Z,5.60
2024-04-19T09:20:01.152Z,5.60
2024-04-19T09:22:28.118Z,5.60
2024-04-19T09:24:56.558Z,5.60
2024-04-19T09:27:24.439Z,5.60
2024-04-19T09:29:52.665Z,5.60
2024-04-19T09:32:22.137Z,5.60
2024-04-19T09:34:49.661Z,5.90
2024-04-19T09:37:17.847Z,5.60
2024-04-19T09:39:45.818Z,5.60
2024-04-19T09:42:13.870Z,5.60
2024-04-19T09:44:42.766Z,5.60
2024-04-19T09:47:11.978Z,5.50
2024-04-19T09:49:45.210Z,5.50
2024-04-19T09:52:20.813Z,5.70
2024-04-19T09:55:07.983Z,5.60
2024-04-19T09:57:36.719Z,5.60
2024-04-19T10:00:05.013Z,5.60
2024-04-19T10:02:37.034Z,5.70
2024-04-19T10:05:06.607Z,5.70
2024-04-19T10:07:35.770Z,5.70
2024-04-19T10:10:04.212Z,5.70
2024-04-19T10:12:33.384Z,5.60
2024-04-19T10:15:00.418Z,5.60
2024-04-19T10:17:28.000Z,5.60
2024-04-19T10:19:56.297Z,5.60
2024-04-19T10:22:24.715Z,5.60
2024-04-19T10:25:02.269Z,5.70
2024-04-19T10:27:30.220Z,5.70
2024-04-19T10:30:01.481Z,5.80
2024-04-19T10:32:30.279Z,5.80
2024-04-19T10:34:57.393Z,5.80
2024-04-19T10:37:24.470Z,5.80
2024-04-19T10:39:51.494Z,5.80
2024-04-19T10:42:25.344Z,5.70
2024-04-19T10:44:53.112Z,5.70
2024-04-19T10:47:22.197Z,5.70
2024-04-19T10:49:49.545Z,5.70
2024-04-19T10:52:22.391Z,5.60
2024-04-19T10:54:49.391Z,5.60
2024-04-19T10:57:16.391Z,5.70
2024-04-19T10:59:45.147Z,5.70
2024-04-19T11:02:13.932Z,5.80
2024-04-19T11:04:41.408Z,5.80
2024-04-19T11:07:08.745Z,5.80
2024-04-19T11:09:35.849Z,5.90
2024-04-19T11:12:03.367Z,5.80
2024-04-19T11:14:30.523Z,5.80
2024-04-19T11:16:57.697Z,5.80
2024-04-19T11:19:25.285Z,5.80
2024-04-19T11:21:52.682Z,5.80
2024-04-19T11:24:22.879Z,5.80
2024-04-19T11:26:50.741Z,5.80
2024-04-19T11:29:17.924Z,5.90
2024-04-19T11:31:47.235Z,5.90
2024-04-19T11:34:15.475Z,5.90
2024-04-19T11:36:44.379Z,5.90
2024-04-19T11:39:15.244Z,5.90
2024-04-19T11:41:42.961Z,6.00
2024-04-19T11:44:10.122Z,5.90
2024-04-19T11:46:38.742Z,5.90
2024-04-19T11:49:07.908Z,6.00
2024-04-19T11:51:35.615Z,6.00
2024-04-19T11:54:03.009Z,6.10
2024-04-19T11:56:29.834Z,6.10
2024-04-19T11:58:56.844Z,6.10
2024-04-19T12:01:27.750Z,6.10
2024-04-19T12:03:55.772Z,6.10
2024-04-19T12:06:23.595Z,6.10
2024-04-19T12:08:51.783Z,6.00
2024-04-19T12:11:19.453Z,6.00
2024-04-19T12:14:33.393Z,5.90
2024-04-19T12:16:41.384Z,6.00
2024-04-19T12:19:13.965Z,5.90
2024-04-19T12:21:42.510Z,6.00
2024-04-19T12:24:11.657Z,5.90
2024-04-19T12:26:40.197Z,5.90
2024-04-19T12:29:08.081Z,6.00
2024-04-19T12:31:35.199Z,5.90
2024-04-19T12:34:02.658Z,5.90
2024-04-19T12:36:29.516Z,5.80
2024-04-19T12:38:56.443Z,5.90
2024-04-19T12:41:23.548Z,5.90
2024-04-19T12:43:50.999Z,5.90
2024-04-19T12:46:18.202Z,5.90
2024-04-19T12:48:46.975Z,5.90
2024-04-19T12:51:14.112Z,6.00
2024-04-19T12:53:43.514Z,6.50
2024-04-19T12:56:10.537Z,6.00
2024-04-19T12:58:40.240Z,6.00
2024-04-19T13:01:08.871Z,6.00
2024-04-19T13:03:36.062Z,6.00
2024-04-19T13:06:03.352Z,6.00
2024-04-19T13:08:30.261Z,5.90
2024-04-19T13:10:57.237Z,5.80
2024-04-19T13:13:24.195Z,5.80
2024-04-19T13:15:51.151Z,5.70
2024-04-19T13:18:18.150Z,5.60
2024-04-19T13:20:45.074Z,5.60
2024-04-19T13:23:12.161Z,5.60
2024-04-19T13:25:39.070Z,5.60
2024-04-19T13:28:06.253Z,5.50
2024-04-19T13:30:34.760Z,5.50
2024-04-19T13:33:01.786Z,5.40
2024-04-19T13:35:28.801Z,5.40
2024-04-19T13:37:55.751Z,5.40
2024-04-19T13:40:22.877Z,5.30
2024-04-19T13:42:49.982Z,5.30
2024-04-19T13:45:16.891Z,5.30
2024-04-19T13:47:44.007Z,5.30
2024-04-19T13:50:11.123Z,5.40
2024-04-19T13:52:37.978Z,5.40
2024-04-19T13:55:07.029Z,5.40
2024-04-19T13:57:37.301Z,5.40
2024-04-19T14:00:07.518Z,5.40
2024-04-19T14:02:36.268Z,5.40
2024-04-19T14:05:03.244Z,5.40
2024-04-19T14:07:30.152Z,5.40
2024-04-19T14:09:57.064Z,5.40
2024-04-19T14:12:24.144Z,5.40
2024-04-19T14:14:51.175Z,5.40
2024-04-19T14:17:19.382Z,5.30
2024-04-19T14:19:48.060Z,5.30
2024-04-19T14:22:16.706Z,5.40
2024-04-19T14:24:46.366Z,5.40
2024-04-19T14:27:14.522Z,5.30
2024-04-19T14:29:41.551Z,5.30
2024-04-19T14:32:08.541Z,5.30
2024-04-19T14:34:35.462Z,5.30
2024-04-19T14:37:02.526Z,5.20
2024-04-19T14:39:29.504Z,5.20
2024-04-19T14:41:56.471Z,5.20
2024-04-19T14:44:23.339Z,5.20
2024-04-19T14:46:50.294Z,5.10
2024-04-19T14:49:17.349Z,5.20
2024-04-19T14:51:46.231Z,5.20
2024-04-19T14:54:13.261Z,5.70
2024-04-19T14:56:40.327Z,5.20
2024-04-19T14:59:13.029Z,5.20
2024-04-19T15:01:41.470Z,5.20
2024-04-19T15:04:10.018Z,5.30
2024-04-19T15:06:39.967Z,5.30
2024-04-19T15:09:08.828Z,5.30
2024-04-19T15:11:36.756Z,5.20
2024-04-19T15:14:07.754Z,5.20
2024-04-19T15:16:34.883Z,5.30
2024-04-19T15:19:02.266Z,5.20
2024-04-19T15:21:29.264Z,5.20
2024-04-19T15:23:56.372Z,5.30
2024-04-19T15:26:23.315Z,5.30
2024-04-19T15:28:50.435Z,5.20
2024-04-19T15:31:20.826Z,5.20
2024-04-19T15:33:47.896Z,5.30
2024-04-19T15:36:14.986Z,5.30
2024-04-19T15:38:44.120Z,5.30
2024-04-19T15:41:12.639Z,5.30
2024-04-19T15:43:39.859Z,5.30
2024-04-19T15:46:06.972Z,5.40
2024-04-19T15:48:34.004Z,5.40
2024-04-19T15:51:04.177Z,5.40
2024-04-19T15:53:31.217Z,5.40
2024-04-19T15:55:58.256Z,5.40
2024-04-19T15:58:27.497Z,5.50
2024-04-19T16:00:54.582Z,5.40
2024-04-19T16:03:21.649Z,5.40
2024-04-19T16:08:39.621Z,5.40
2024-04-19T16:11:06.959Z,5.50
2024-04-19T16:13:34.012Z,5.40
2024-04-19T16:16:07.903Z,5.40
2024-04-19T16:18:35.142Z,5.40
2024-04-19T16:21:02.225Z,5.40
2024-04-19T16:23:30.452Z,5.40
2024-04-19T16:25:57.506Z,5.40
2024-04-19T16:28:24.456Z,5.40
2024-04-19T16:30:51.456Z,5.40
2024-04-19T16:33:18.732Z,5.40
2024-04-19T16:35:56.156Z,5.40
2024-04-19T16:38:30.444Z,5.40
2024-04-19T16:40:57.613Z,5.40
2024-04-19T16:43:24.680Z,5.40
2024-04-19T16:45:51.635Z,5.40
2024-04-19T16:51:09.345Z,5.30
2024-04-19T16:53:36.414Z,5.40
2024-04-19T16:56:06.243Z,4.30
2024-04-19T16:58:34.916Z,5.30
2024-04-19T17:01:01.907Z,5.20
2024-04-19T17:03:29.027Z,5.20
2024-04-19T17:05:56.097Z,5.20
2024-04-19T17:08:23.229Z,5.20
2024-04-19T17:10:50.401Z,5.10
2024-04-19T17:13:17.967Z,5.10
2024-04-19T17:15:45.214Z,5.10
2024-04-19T17:18:12.403Z,5.10
2024-04-19T17:20:42.722Z,5.00
2024-04-19T17:23:10.825Z,5.00
2024-04-19T17:25:38.215Z,5.00
2024-04-19T17:28:07.423Z,5.00
2024-04-19T17:30:38.766Z,5.00
2024-04-19T17:33:06.145Z,5.10
2024-04-19T17:35:33.405Z,5.00
2024-04-19T17:38:00.490Z,4.90
2024-04-19T17:40:27.387Z,5.00
2024-04-19T17:42:54.835Z,4.90
2024-04-19T17:45:21.776Z,4.80
2024-04-19T17:47:48.971Z,4.80
2024-04-19T17:50:15.912Z,4.80
2024-04-19T17:52:42.859Z,4.70
2024-04-19T17:55:10.143Z,4.70
2024-04-19T17:57:37.325Z,4.60
2024-04-19T18:00:06.681Z,4.60
2024-04-19T18:02:33.795Z,4.60
2024-04-19T18:05:01.093Z,4.50
2024-04-19T18:07:28.127Z,4.30
2024-04-19T18:09:55.116Z,4.30
2024-04-19T18:12:22.126Z,4.30
2024-04-19T18:14:49.029Z,4.20
2024-04-19T18:17:16.057Z,4.20
2024-04-19T18:19:43.219Z,4.20
2024-04-19T18:22:10.964Z,4.20
2024-04-19T18:24:38.327Z,4.20
2024-04-19T18:27:05.740Z,4.20
2024-04-19T18:29:33.916Z,4.20
2024-04-19T18:32:00.910Z,4.20
2024-04-19T18:34:27.968Z,4.20
2024-04-19T18:36:54.906Z,4.10
2024-04-19T18:39:22.008Z,4.00
2024-04-19T18:41:48.954Z,4.00
2024-04-19T18:44:16.091Z,3.90
2024-04-19T18:46:43.190Z,4.00
2024-04-19T18:49:11.358Z,3.90
2024-04-19T18:51:38.566Z,4.60
2024-04-19T18:54:05.767Z,3.80
2024-04-19T18:56:32.820Z,3.90
2024-04-19T18:58:59.760Z,3.90
2024-04-19T19:01:26.842Z,3.80
2024-04-19T19:03:54.015Z,3.80
2024-04-19T19:06:21.577Z,3.80
2024-04-19T19:08:48.665Z,3.80
2024-04-19T19:11:16.248Z,3.80
2024-04-19T19:13:43.627Z,3.80
2024-04-19T19:16:11.936Z,3.80
2024-04-19T19:18:39.465Z,3.70
2024-04-19T19:21:06.583Z,3.70
2024-04-19T19:23:33.547Z,3.70
2024-04-19T19:26:07.224Z,3.70
2024-04-19T19:28:34.213Z,3.70
2024-04-19T19:31:01.422Z,3.60
2024-04-19T19:33:28.624Z,3.70
2024-04-19T19:35:57.430Z,3.60
2024-04-19T19:38:24.797Z,3.60
2024-04-19T19:40:51.760Z,3.70
2024-04-19T19:43:21.467Z,3.60
2024-04-19T19:45:53.878Z,3.60
2024-04-19T19:48:20.921Z,3.60
2024-04-19T19:50:58.691Z,3.60
2024-04-19T19:53:26.009Z,3.60
2024-04-19T19:55:53.125Z,3.50
2024-04-19T19:58:20.307Z,3.50
2024-04-19T20:01:07.381Z,3.60
2024-04-19T20:03:52.943Z,3.50
2024-04-19T20:06:20.282Z,3.50
2024-04-19T20:08:47.313Z,3.50
2024-04-19T20:11:14.258Z,3.50
2024-04-19T20:13:41.099Z,3.60
2024-04-19T20:16:09.071Z,3.60
2024-04-19T20:18:39.275Z,3.60
2024-04-19T20:21:06.439Z,3.60
2024-04-19T20:23:33.748Z,3.70
2024-04-19T20:26:00.720Z,3.70
2024-04-19T20:28:27.773Z,4.30
2024-04-19T20:30:54.929Z,3.80
2024-04-19T20:33:22.108Z,3.80
2024-04-19T20:35:48.989Z,3.80
2024-04-19T20:38:15.978Z,3.90
2024-04-19T20:40:42.931Z,3.90
2024-04-19T20:43:18.564Z,3.90
2024-04-19T20:45:48.114Z,3.90
2024-04-19T20:48:17.480Z,3.90
2024-04-19T20:50:47.396Z,4.00
2024-04-19T20:53:14.279Z,4.00
2024-04-19T20:55:41.361Z,4.00
2024-04-19T20:58:08.415Z,4.00
2024-04-19T21:00:38.792Z,3.90
2024-04-19T21:03:06.321Z,3.90
2024-04-19T21:05:33.497Z,3.90
2024-04-19T21:08:00.552Z,3.90
2024-04-19T21:10:27.828Z,3.90
2024-04-19T21:12:54.891Z,3.90
2024-04-19T21:15:22.083Z,3.90
2024-04-19T21:17:49.227Z,4.10
2024-04-19T21:20:16.313Z,3.90
2024-04-19T21:22:43.312Z,4.00
2024-04-19T21:25:10.393Z,4.00
2024-04-19T21:27:37.332Z,4.10
2024-04-19T21:30:04.748Z,4.10
2024-04-19T21:32:31.887Z,4.10
2024-04-19T21:34:58.850Z,4.10
2024-04-19T21:37:25.824Z,4.10
2024-04-19T21:39:55.375Z,4.10
2024-04-19T21:42:23.216Z,4.10
2024-04-19T21:44:53.205Z,4.10
2024-04-19T21:47:20.709Z,4.00
2024-04-19T21:49:47.779Z,4.00
2024-04-19T21:52:14.751Z,4.00
2024-04-19T21:54:43.126Z,4.00
2024-04-19T21:57:10.507Z,4.00
2024-04-19T21:59:37.783Z,3.90
2024-04-19T22:02:05.064Z,3.90
2024-04-19T22:04:32.291Z,4.00
2024-04-19T22:06:59.520Z,3.90
2024-04-19T22:09:26.624Z,3.90
2024-04-19T22:11:53.565Z,3.90
2024-04-19T22:14:20.487Z,3.90
2024-04-19T22:16:47.496Z,3.90
2024-04-19T22:19:14.972Z,3.90
2024-04-19T22:21:42.142Z,3.90
2024-04-19T22:24:09.218Z,3.80
2024-04-19T22:26:36.248Z,3.90
2024-04-19T22:29:03.194Z,3.90
2024-04-19T22:31:30.019Z,3.90
2024-04-19T22:33:57.222Z,3.90
2024-04-19T22:36:24.668Z,3.80
2024-04-19T22:38:51.938Z,3.80
2024-04-19T22:41:18.968Z,3.70
2024-04-19T22:43:45.916Z,3.70
2024-04-19T22:46:14.989Z,3.70
2024-04-19T22:48:41.953Z,3.70
2024-04-19T22:51:10.107Z,3.60
2024-04-19T22:53:37.083Z,3.60
2024-04-19T22:56:04.436Z,3.60
2024-04-19T22:58:31.448Z,3.60
2024-04-19T23:01:07.700Z,3.50
2024-04-19T23:03:35.267Z,3.40
2024-04-19T23:06:09.758Z,3.40
2024-04-19T23:08:37.354Z,3.40
2024-04-19T23:11:04.822Z,3.40
2024-04-19T23:13:32.390Z,3.40
2024-04-19T23:15:59.473Z,3.40
2024-04-19T23:18:26.639Z,3.50
2024-04-19T23:21:07.401Z,3.50
2024-04-19T23:23:40.700Z,3.60
2024-04-19T23:26:10.027Z,3.60
2024-04-19T23:28:38.320Z,3.60
2024-04-19T23:31:06.090Z,3.60
2024-04-19T23:33:33.536Z,3.60
2024-04-19T23:36:26.648Z,3.60
2024-04-19T23:38:53.648Z,3.60
2024-04-19T23:41:23.129Z,3.60
2024-04-19T23:43:50.197Z,3.50
2024-04-19T23:46:17.086Z,3.50
2024-04-19T23:48:44.139Z,3.50
2024-04-19T23:54:08.991Z,3.50
2024-04-19T23:56:36.034Z,3.50
2024-04-19T23:59:02.976Z,3.50
